sensor_id;sensor_type;location;lat;lon;timestamp;P1;durP1;ratioP1;P2;durP2;ratioP2
17310;SDS011;8773;43.300;0.394;2023-05-02T00:01:23;2.40;;;2.20;;
17310;SDS011;8773;43.300;0.394;2023-05-02T00:03:50;2.40;;;2.30;;
17310;SDS011;8773;43.300;0.394;2023-05-02T00:06:18;2.13;;;2.00;;
17310;SDS011;8773;43.300;0.394;2023-05-02T00:08:47;3.73;;;2.63;;
17310;SDS011;8773;43.300;0.394;2023-05-02T00:11:14;2.40;;;2.30;;
17310;SDS011;8773;43.300;0.394;2023-05-02T00:13:42;3.80;;;2.40;;
17310;SDS011;8773;43.300;0.394;2023-05-02T00:16:09;2.60;;;2.50;;
17310;SDS011;8773;43.300;0.394;2023-05-02T00:18:38;3.13;;;2.23;;
17310;SDS011;8773;43.300;0.394;2023-05-02T00:21:05;3.20;;;2.40;;
17310;SDS011;8773;43.300;0.394;2023-05-02T00:23:33;2.60;;;2.40;;
17310;SDS011;8773;43.300;0.394;2023-05-02T00:26:00;2.60;;;2.40;;
17310;SDS011;8773;43.300;0.394;2023-05-02T00:28:27;2.40;;;2.20;;
17310;SDS011;8773;43.300;0.394;2023-05-02T00:30:55;2.63;;;2.33;;
17310;SDS011;8773;43.300;0.394;2023-05-02T00:33:22;3.20;;;2.33;;
17310;SDS011;8773;43.300;0.394;2023-05-02T00:35:51;3.33;;;2.30;;
17310;SDS011;8773;43.300;0.394;2023-05-02T00:38:18;2.53;;;2.33;;
17310;SDS011;8773;43.300;0.394;2023-05-02T00:40:46;2.40;;;2.20;;
17310;SDS011;8773;43.300;0.394;2023-05-02T00:43:14;2.83;;;2.60;;
17310;SDS011;8773;43.300;0.394;2023-05-02T00:45:42;3.63;;;2.70;;
17310;SDS011;8773;43.300;0.394;2023-05-02T00:48:11;2.57;;;2.47;;
17310;SDS011;8773;43.300;0.394;2023-05-02T00:50:39;5.83;;;2.87;;
17310;SDS011;8773;43.300;0.394;2023-05-02T00:53:09;2.60;;;2.40;;
17310;SDS011;8773;43.300;0.394;2023-05-02T00:55:37;4.50;;;2.60;;
17310;SDS011;8773;43.300;0.394;2023-05-02T00:58:05;4.33;;;2.80;;
17310;SDS011;8773;43.300;0.394;2023-05-02T01:00:38;2.90;;;2.60;;
17310;SDS011;8773;43.300;0.394;2023-05-02T01:03:16;2.60;;;2.40;;
17310;SDS011;8773;43.300;0.394;2023-05-02T01:05:53;2.60;;;2.50;;
17310;SDS011;8773;43.300;0.394;2023-05-02T01:08:32;2.73;;;2.53;;
17310;SDS011;8773;43.300;0.394;2023-05-02T01:11:04;2.53;;;2.33;;
17310;SDS011;8773;43.300;0.394;2023-05-02T01:13:40;2.90;;;2.70;;
17310;SDS011;8773;43.300;0.394;2023-05-02T01:16:09;2.47;;;2.37;;
17310;SDS011;8773;43.300;0.394;2023-05-02T01:18:39;2.90;;;2.70;;
17310;SDS011;8773;43.300;0.394;2023-05-02T01:21:09;3.07;;;2.67;;
17310;SDS011;8773;43.300;0.394;2023-05-02T01:23:40;4.77;;;2.30;;
17310;SDS011;8773;43.300;0.394;2023-05-02T01:26:18;4.33;;;2.53;;
17310;SDS011;8773;43.300;0.394;2023-05-02T01:28:58;2.60;;;2.40;;
17310;SDS011;8773;43.300;0.394;2023-05-02T01:31:28;2.60;;;2.30;;
17310;SDS011;8773;43.300;0.394;2023-05-02T01:33:59;2.30;;;2.20;;
17310;SDS011;8773;43.300;0.394;2023-05-02T01:36:29;3.07;;;2.47;;
17310;SDS011;8773;43.300;0.394;2023-05-02T01:38:58;2.90;;;2.30;;
17310;SDS011;8773;43.300;0.394;2023-05-02T01:41:28;3.33;;;2.53;;
17310;SDS011;8773;43.300;0.394;2023-05-02T01:43:58;2.67;;;2.47;;
17310;SDS011;8773;43.300;0.394;2023-05-02T01:46:29;2.63;;;2.40;;
17310;SDS011;8773;43.300;0.394;2023-05-02T01:48:59;2.60;;;2.40;;
17310;SDS011;8773;43.300;0.394;2023-05-02T01:51:29;2.37;;;2.27;;
17310;SDS011;8773;43.300;0.394;2023-05-02T01:54:00;2.50;;;2.40;;
17310;SDS011;8773;43.300;0.394;2023-05-02T01:56:30;4.47;;;2.30;;
17310;SDS011;8773;43.300;0.394;2023-05-02T01:59:01;3.63;;;2.60;;
17310;SDS011;8773;43.300;0.394;2023-05-02T02:01:32;2.50;;;2.30;;
17310;SDS011;8773;43.300;0.394;2023-05-02T02:04:01;3.47;;;2.93;;
17310;SDS011;8773;43.300;0.394;2023-05-02T02:06:31;3.37;;;3.03;;
17310;SDS011;8773;43.300;0.394;2023-05-02T02:08:59;4.50;;;2.60;;
17310;SDS011;8773;43.300;0.394;2023-05-02T02:11:28;2.73;;;2.53;;
17310;SDS011;8773;43.300;0.394;2023-05-02T02:14:04;3.50;;;2.67;;
17310;SDS011;8773;43.300;0.394;2023-05-02T02:16:33;2.60;;;2.50;;
17310;SDS011;8773;43.300;0.394;2023-05-02T02:19:05;3.00;;;2.80;;
17310;SDS011;8773;43.300;0.394;2023-05-02T02:21:36;2.93;;;2.60;;
17310;SDS011;8773;43.300;0.394;2023-05-02T02:24:04;3.13;;;2.40;;
17310;SDS011;8773;43.300;0.394;2023-05-02T02:26:33;3.17;;;2.80;;
17310;SDS011;8773;43.300;0.394;2023-05-02T02:29:03;3.00;;;2.70;;
17310;SDS011;8773;43.300;0.394;2023-05-02T02:31:31;2.33;;;2.20;;
17310;SDS011;8773;43.300;0.394;2023-05-02T02:33:58;3.00;;;2.30;;
17310;SDS011;8773;43.300;0.394;2023-05-02T02:36:28;2.20;;;2.00;;
17310;SDS011;8773;43.300;0.394;2023-05-02T02:39:01;2.87;;;2.60;;
17310;SDS011;8773;43.300;0.394;2023-05-02T02:41:39;2.70;;;2.53;;
17310;SDS011;8773;43.300;0.394;2023-05-02T02:44:17;4.60;;;2.83;;
17310;SDS011;8773;43.300;0.394;2023-05-02T02:46:54;2.70;;;2.60;;
17310;SDS011;8773;43.300;0.394;2023-05-02T02:49:34;3.40;;;2.97;;
17310;SDS011;8773;43.300;0.394;2023-05-02T02:52:16;2.93;;;2.73;;
17310;SDS011;8773;43.300;0.394;2023-05-02T02:54:51;2.30;;;2.20;;
17310;SDS011;8773;43.300;0.394;2023-05-02T02:57:25;2.83;;;2.70;;
17310;SDS011;8773;43.300;0.394;2023-05-02T03:00:03;3.33;;;2.63;;
17310;SDS011;8773;43.300;0.394;2023-05-02T03:02:34;3.70;;;2.70;;
17310;SDS011;8773;43.300;0.394;2023-05-02T03:05:03;2.70;;;2.50;;
17310;SDS011;8773;43.300;0.394;2023-05-02T03:07:33;3.00;;;2.80;;
17310;SDS011;8773;43.300;0.394;2023-05-02T03:10:01;3.87;;;3.00;;
17310;SDS011;8773;43.300;0.394;2023-05-02T03:12:29;3.63;;;3.33;;
17310;SDS011;8773;43.300;0.394;2023-05-02T03:14:59;3.13;;;2.93;;
17310;SDS011;8773;43.300;0.394;2023-05-02T03:17:38;4.13;;;2.90;;
17310;SDS011;8773;43.300;0.394;2023-05-02T03:20:06;3.80;;;2.90;;
17310;SDS011;8773;43.300;0.394;2023-05-02T03:22:34;3.10;;;2.90;;
17310;SDS011;8773;43.300;0.394;2023-05-02T03:25:01;3.20;;;2.90;;
17310;SDS011;8773;43.300;0.394;2023-05-02T03:27:28;3.13;;;2.73;;
17310;SDS011;8773;43.300;0.394;2023-05-02T03:29:56;3.83;;;3.33;;
17310;SDS011;8773;43.300;0.394;2023-05-02T03:32:25;3.67;;;2.80;;
17310;SDS011;8773;43.300;0.394;2023-05-02T03:34:52;3.57;;;3.27;;
17310;SDS011;8773;43.300;0.394;2023-05-02T03:37:19;3.70;;;3.40;;
17310;SDS011;8773;43.300;0.394;2023-05-02T03:39:47;2.83;;;2.63;;
17310;SDS011;8773;43.300;0.394;2023-05-02T03:42:14;3.73;;;2.83;;
17310;SDS011;8773;43.300;0.394;2023-05-02T03:44:41;2.83;;;2.73;;
17310;SDS011;8773;43.300;0.394;2023-05-02T03:47:09;3.03;;;2.60;;
17310;SDS011;8773;43.300;0.394;2023-05-02T03:49:38;3.60;;;2.70;;
17310;SDS011;8773;43.300;0.394;2023-05-02T03:52:06;3.97;;;2.80;;
17310;SDS011;8773;43.300;0.394;2023-05-02T03:54:33;3.27;;;2.97;;
17310;SDS011;8773;43.300;0.394;2023-05-02T03:57:00;3.20;;;3.00;;
17310;SDS011;8773;43.300;0.394;2023-05-02T03:59:28;3.30;;;3.00;;
17310;SDS011;8773;43.300;0.394;2023-05-02T04:01:58;5.17;;;3.13;;
17310;SDS011;8773;43.300;0.394;2023-05-02T04:04:25;2.80;;;2.60;;
17310;SDS011;8773;43.300;0.394;2023-05-02T04:06:54;3.80;;;2.70;;
17310;SDS011;8773;43.300;0.394;2023-05-02T04:09:22;3.20;;;3.00;;
17310;SDS011;8773;43.300;0.394;2023-05-02T04:11:49;4.60;;;3.03;;
17310;SDS011;8773;43.300;0.394;2023-05-02T04:14:16;4.20;;;2.73;;
17310;SDS011;8773;43.300;0.394;2023-05-02T04:16:46;3.43;;;2.97;;
17310;SDS011;8773;43.300;0.394;2023-05-02T04:19:14;3.87;;;3.30;;
17310;SDS011;8773;43.300;0.394;2023-05-02T04:21:41;3.63;;;3.10;;
17310;SDS011;8773;43.300;0.394;2023-05-02T04:24:10;3.93;;;3.10;;
17310;SDS011;8773;43.300;0.394;2023-05-02T04:26:37;4.13;;;2.73;;
17310;SDS011;8773;43.300;0.394;2023-05-02T04:29:05;3.40;;;3.10;;
17310;SDS011;8773;43.300;0.394;2023-05-02T04:31:32;3.30;;;3.07;;
17310;SDS011;8773;43.300;0.394;2023-05-02T04:34:00;4.47;;;3.53;;
17310;SDS011;8773;43.300;0.394;2023-05-02T04:36:27;3.20;;;3.00;;
17310;SDS011;8773;43.300;0.394;2023-05-02T04:38:54;3.10;;;2.80;;
17310;SDS011;8773;43.300;0.394;2023-05-02T04:41:23;3.20;;;3.00;;
17310;SDS011;8773;43.300;0.394;2023-05-02T04:43:50;3.67;;;2.90;;
17310;SDS011;8773;43.300;0.394;2023-05-02T04:46:18;3.53;;;3.27;;
17310;SDS011;8773;43.300;0.394;2023-05-02T04:48:45;3.13;;;2.90;;
17310;SDS011;8773;43.300;0.394;2023-05-02T04:51:13;4.10;;;3.27;;
17310;SDS011;8773;43.300;0.394;2023-05-02T04:53:43;3.63;;;3.43;;
17310;SDS011;8773;43.300;0.394;2023-05-02T04:56:10;2.97;;;2.87;;
17310;SDS011;8773;43.300;0.394;2023-05-02T04:58:38;4.20;;;3.20;;
17310;SDS011;8773;43.300;0.394;2023-05-02T05:01:06;3.87;;;3.50;;
17310;SDS011;8773;43.300;0.394;2023-05-02T05:03:33;3.63;;;3.33;;
17310;SDS011;8773;43.300;0.394;2023-05-02T05:06:01;3.73;;;3.43;;
17310;SDS011;8773;43.300;0.394;2023-05-02T05:08:28;3.60;;;3.20;;
17310;SDS011;8773;43.300;0.394;2023-05-02T05:10:55;6.27;;;3.47;;
17310;SDS011;8773;43.300;0.394;2023-05-02T05:13:23;4.37;;;4.00;;
17310;SDS011;8773;43.300;0.394;2023-05-02T05:15:52;4.67;;;3.80;;
17310;SDS011;8773;43.300;0.394;2023-05-02T05:18:19;4.07;;;3.60;;
17310;SDS011;8773;43.300;0.394;2023-05-02T05:20:46;3.97;;;3.50;;
17310;SDS011;8773;43.300;0.394;2023-05-02T05:23:14;4.30;;;4.00;;
17310;SDS011;8773;43.300;0.394;2023-05-02T05:25:41;3.60;;;3.40;;
17310;SDS011;8773;43.300;0.394;2023-05-02T05:28:11;3.77;;;3.47;;
17310;SDS011;8773;43.300;0.394;2023-05-02T05:30:39;5.93;;;3.53;;
17310;SDS011;8773;43.300;0.394;2023-05-02T05:33:07;4.07;;;3.77;;
17310;SDS011;8773;43.300;0.394;2023-05-02T05:35:35;3.90;;;3.60;;
17310;SDS011;8773;43.300;0.394;2023-05-02T05:38:02;4.10;;;3.53;;
17310;SDS011;8773;43.300;0.394;2023-05-02T05:40:29;3.70;;;3.50;;
17310;SDS011;8773;43.300;0.394;2023-05-02T05:42:56;3.53;;;3.23;;
17310;SDS011;8773;43.300;0.394;2023-05-02T05:45:24;3.97;;;3.57;;
17310;SDS011;8773;43.300;0.394;2023-05-02T05:47:52;3.90;;;3.60;;
17310;SDS011;8773;43.300;0.394;2023-05-02T05:50:21;3.50;;;3.20;;
17310;SDS011;8773;43.300;0.394;2023-05-02T05:52:49;3.63;;;3.40;;
17310;SDS011;8773;43.300;0.394;2023-05-02T05:55:16;3.53;;;3.27;;
17310;SDS011;8773;43.300;0.394;2023-05-02T05:57:47;3.60;;;3.40;;
17310;SDS011;8773;43.300;0.394;2023-05-02T06:00:14;3.50;;;3.13;;
17310;SDS011;8773;43.300;0.394;2023-05-02T06:02:42;3.57;;;3.37;;
17310;SDS011;8773;43.300;0.394;2023-05-02T06:05:09;3.40;;;3.10;;
17310;SDS011;8773;43.300;0.394;2023-05-02T06:07:38;2.80;;;2.50;;
17310;SDS011;8773;43.300;0.394;2023-05-02T06:10:06;2.60;;;2.30;;
17310;SDS011;8773;43.300;0.394;2023-05-02T06:12:33;2.73;;;2.50;;
17310;SDS011;8773;43.300;0.394;2023-05-02T06:15:00;2.37;;;2.20;;
17310;SDS011;8773;43.300;0.394;2023-05-02T06:17:28;2.20;;;2.10;;
17310;SDS011;8773;43.300;0.394;2023-05-02T06:19:55;2.30;;;2.10;;
17310;SDS011;8773;43.300;0.394;2023-05-02T06:22:23;3.28;;;2.40;;
17310;SDS011;8773;43.300;0.394;2023-05-02T06:24:52;3.38;;;2.45;;
17310;SDS011;8773;43.300;0.394;2023-05-02T06:27:19;2.15;;;1.95;;
17310;SDS011;8773;43.300;0.394;2023-05-02T06:29:48;4.53;;;2.00;;
17310;SDS011;8773;43.300;0.394;2023-05-02T06:32:17;1.88;;;1.60;;
17310;SDS011;8773;43.300;0.394;2023-05-02T06:34:44;2.13;;;1.77;;
17310;SDS011;8773;43.300;0.394;2023-05-02T06:37:11;3.08;;;1.85;;
17310;SDS011;8773;43.300;0.394;2023-05-02T06:39:39;3.33;;;1.70;;
17310;SDS011;8773;43.300;0.394;2023-05-02T06:42:07;3.05;;;1.90;;
17310;SDS011;8773;43.300;0.394;2023-05-02T06:44:35;2.85;;;1.98;;
17310;SDS011;8773;43.300;0.394;2023-05-02T06:47:03;1.58;;;1.48;;
17310;SDS011;8773;43.300;0.394;2023-05-02T06:49:30;2.10;;;1.80;;
17310;SDS011;8773;43.300;0.394;2023-05-02T06:51:58;2.38;;;1.90;;
17310;SDS011;8773;43.300;0.394;2023-05-02T06:54:25;1.50;;;1.40;;
17310;SDS011;8773;43.300;0.394;2023-05-02T06:56:52;2.25;;;1.38;;
17310;SDS011;8773;43.300;0.394;2023-05-02T06:59:21;1.95;;;1.52;;
17310;SDS011;8773;43.300;0.394;2023-05-02T07:01:49;1.50;;;1.40;;
17310;SDS011;8773;43.300;0.394;2023-05-02T07:04:16;3.22;;;1.60;;
17310;SDS011;8773;43.300;0.394;2023-05-02T07:06:44;1.67;;;1.58;;
17310;SDS011;8773;43.300;0.394;2023-05-02T07:09:12;3.08;;;1.60;;
17310;SDS011;8773;43.300;0.394;2023-05-02T07:11:40;1.63;;;1.50;;
17310;SDS011;8773;43.300;0.394;2023-05-02T07:14:07;1.60;;;1.30;;
17310;SDS011;8773;43.300;0.394;2023-05-02T07:16:36;1.60;;;1.25;;
17310;SDS011;8773;43.300;0.394;2023-05-02T07:19:03;3.60;;;1.75;;
17310;SDS011;8773;43.300;0.394;2023-05-02T07:21:30;1.52;;;1.42;;
17310;SDS011;8773;43.300;0.394;2023-05-02T07:23:58;2.65;;;1.30;;
17310;SDS011;8773;43.300;0.394;2023-05-02T07:26:25;1.42;;;1.33;;
17310;SDS011;8773;43.300;0.394;2023-05-02T07:28:54;1.20;;;1.20;;
17310;SDS011;8773;43.300;0.394;2023-05-02T07:31:21;1.60;;;1.50;;
17310;SDS011;8773;43.300;0.394;2023-05-02T07:33:50;1.83;;;1.60;;
17310;SDS011;8773;43.300;0.394;2023-05-02T07:36:17;1.88;;;1.70;;
17310;SDS011;8773;43.300;0.394;2023-05-02T07:38:45;2.17;;;1.50;;
17310;SDS011;8773;43.300;0.394;2023-05-02T07:41:12;2.92;;;1.70;;
17310;SDS011;8773;43.300;0.394;2023-05-02T07:43:39;2.55;;;1.50;;
17310;SDS011;8773;43.300;0.394;2023-05-02T07:46:07;2.85;;;1.40;;
17310;SDS011;8773;43.300;0.394;2023-05-02T07:48:34;1.65;;;1.50;;
17310;SDS011;8773;43.300;0.394;2023-05-02T07:51:06;2.00;;;1.40;;
17310;SDS011;8773;43.300;0.394;2023-05-02T07:53:34;2.25;;;1.40;;
17310;SDS011;8773;43.300;0.394;2023-05-02T07:56:02;1.60;;;1.40;;
17310;SDS011;8773;43.300;0.394;2023-05-02T07:58:30;1.52;;;1.42;;
17310;SDS011;8773;43.300;0.394;2023-05-02T08:00:57;2.47;;;1.70;;
17310;SDS011;8773;43.300;0.394;2023-05-02T08:03:25;1.85;;;1.70;;
17310;SDS011;8773;43.300;0.394;2023-05-02T08:05:52;1.48;;;1.38;;
17310;SDS011;8773;43.300;0.394;2023-05-02T08:08:21;1.50;;;1.40;;
17310;SDS011;8773;43.300;0.394;2023-05-02T08:10:49;1.40;;;1.30;;
17310;SDS011;8773;43.300;0.394;2023-05-02T08:13:16;3.10;;;1.42;;
17310;SDS011;8773;43.300;0.394;2023-05-02T08:15:43;1.48;;;1.38;;
17310;SDS011;8773;43.300;0.394;2023-05-02T08:18:11;3.22;;;1.80;;
17310;SDS011;8773;43.300;0.394;2023-05-02T08:20:38;1.50;;;1.40;;
17310;SDS011;8773;43.300;0.394;2023-05-02T08:23:05;1.70;;;1.60;;
17310;SDS011;8773;43.300;0.394;2023-05-02T08:25:34;2.88;;;1.60;;
17310;SDS011;8773;43.300;0.394;2023-05-02T08:28:02;3.28;;;1.58;;
17310;SDS011;8773;43.300;0.394;2023-05-02T08:30:29;1.83;;;1.73;;
17310;SDS011;8773;43.300;0.394;2023-05-02T08:32:57;1.85;;;1.67;;
17310;SDS011;8773;43.300;0.394;2023-05-02T08:35:24;3.95;;;1.60;;
17310;SDS011;8773;43.300;0.394;2023-05-02T08:37:51;1.58;;;1.48;;
17310;SDS011;8773;43.300;0.394;2023-05-02T08:40:19;2.92;;;1.88;;
17310;SDS011;8773;43.300;0.394;2023-05-02T08:43:08;1.23;;;1.23;;
17310;SDS011;8773;43.300;0.394;2023-05-02T08:45:38;2.70;;;1.70;;
17310;SDS011;8773;43.300;0.394;2023-05-02T08:48:07;1.42;;;1.33;;
17310;SDS011;8773;43.300;0.394;2023-05-02T08:50:36;1.33;;;1.33;;
17310;SDS011;8773;43.300;0.394;2023-05-02T08:53:04;1.50;;;1.40;;
17310;SDS011;8773;43.300;0.394;2023-05-02T08:55:32;1.50;;;1.40;;
17310;SDS011;8773;43.300;0.394;2023-05-02T08:58:01;2.22;;;1.35;;
17310;SDS011;8773;43.300;0.394;2023-05-02T09:00:30;1.60;;;1.50;;
17310;SDS011;8773;43.300;0.394;2023-05-02T09:03:03;1.55;;;1.45;;
17310;SDS011;8773;43.300;0.394;2023-05-02T09:05:32;1.50;;;1.40;;
17310;SDS011;8773;43.300;0.394;2023-05-02T09:08:07;3.40;;;1.60;;
17310;SDS011;8773;43.300;0.394;2023-05-02T09:10:34;1.83;;;1.50;;
17310;SDS011;8773;43.300;0.394;2023-05-02T09:15:59;1.25;;;1.25;;
17310;SDS011;8773;43.300;0.394;2023-05-02T09:18:28;1.38;;;1.38;;
17310;SDS011;8773;43.300;0.394;2023-05-02T09:20:59;1.63;;;1.52;;
17310;SDS011;8773;43.300;0.394;2023-05-02T09:23:36;2.50;;;1.65;;
17310;SDS011;8773;43.300;0.394;2023-05-02T09:26:12;1.60;;;1.50;;
17310;SDS011;8773;43.300;0.394;2023-05-02T09:28:41;1.55;;;1.45;;
17310;SDS011;8773;43.300;0.394;2023-05-02T09:31:11;1.85;;;1.58;;
17310;SDS011;8773;43.300;0.394;2023-05-02T09:33:41;2.85;;;1.63;;
17310;SDS011;8773;43.300;0.394;2023-05-02T09:36:10;1.73;;;1.63;;
17310;SDS011;8773;43.300;0.394;2023-05-02T09:38:38;2.58;;;1.60;;
17310;SDS011;8773;43.300;0.394;2023-05-02T09:41:06;1.63;;;1.50;;
17310;SDS011;8773;43.300;0.394;2023-05-02T09:43:34;1.77;;;1.67;;
17310;SDS011;8773;43.300;0.394;2023-05-02T09:46:01;1.77;;;1.50;;
17310;SDS011;8773;43.300;0.394;2023-05-02T09:48:32;1.70;;;1.60;;
17310;SDS011;8773;43.300;0.394;2023-05-02T09:51:17;3.53;;;1.90;;
17310;SDS011;8773;43.300;0.394;2023-05-02T09:53:45;2.10;;;1.58;;
17310;SDS011;8773;43.300;0.394;2023-05-02T09:56:12;2.17;;;1.73;;
17310;SDS011;8773;43.300;0.394;2023-05-02T09:58:40;1.67;;;1.58;;
17310;SDS011;8773;43.300;0.394;2023-05-02T10:01:10;1.70;;;1.60;;
17310;SDS011;8773;43.300;0.394;2023-05-02T10:03:41;1.50;;;1.40;;
17310;SDS011;8773;43.300;0.394;2023-05-02T10:06:13;1.77;;;1.50;;
17310;SDS011;8773;43.300;0.394;2023-05-02T10:08:41;1.52;;;1.42;;
17310;SDS011;8773;43.300;0.394;2023-05-02T10:11:08;2.35;;;1.55;;
17310;SDS011;8773;43.300;0.394;2023-05-02T10:13:38;1.67;;;1.50;;
17310;SDS011;8773;43.300;0.394;2023-05-02T10:16:07;1.40;;;1.35;;
17310;SDS011;8773;43.300;0.394;2023-05-02T10:18:40;2.05;;;1.60;;
17310;SDS011;8773;43.300;0.394;2023-05-02T10:21:14;1.50;;;1.40;;
17310;SDS011;8773;43.300;0.394;2023-05-02T10:23:43;1.60;;;1.50;;
17310;SDS011;8773;43.300;0.394;2023-05-02T10:26:11;1.50;;;1.40;;
17310;SDS011;8773;43.300;0.394;2023-05-02T10:28:42;1.90;;;1.67;;
17310;SDS011;8773;43.300;0.394;2023-05-02T10:31:09;1.83;;;1.60;;
17310;SDS011;8773;43.300;0.394;2023-05-02T10:33:37;1.95;;;1.48;;
17310;SDS011;8773;43.300;0.394;2023-05-02T10:36:07;1.67;;;1.40;;
17310;SDS011;8773;43.300;0.394;2023-05-02T10:38:35;3.17;;;1.30;;
17310;SDS011;8773;43.300;0.394;2023-05-02T10:41:04;1.30;;;1.30;;
17310;SDS011;8773;43.300;0.394;2023-05-02T10:43:35;1.60;;;1.50;;
17310;SDS011;8773;43.300;0.394;2023-05-02T10:49:00;1.58;;;1.48;;
17310;SDS011;8773;43.300;0.394;2023-05-02T10:51:31;1.70;;;1.60;;
17310;SDS011;8773;43.300;0.394;2023-05-02T10:54:17;1.60;;;1.50;;
17310;SDS011;8773;43.300;0.394;2023-05-02T10:57:01;2.17;;;1.88;;
17310;SDS011;8773;43.300;0.394;2023-05-02T10:59:30;1.60;;;1.50;;
17310;SDS011;8773;43.300;0.394;2023-05-02T11:01:59;1.55;;;1.45;;
17310;SDS011;8773;43.300;0.394;2023-05-02T11:07:34;2.38;;;1.27;;
17310;SDS011;8773;43.300;0.394;2023-05-02T11:12:52;1.83;;;1.40;;
17310;SDS011;8773;43.300;0.394;2023-05-02T11:18:22;1.90;;;1.40;;
17310;SDS011;8773;43.300;0.394;2023-05-02T11:20:49;1.48;;;1.27;;
17310;SDS011;8773;43.300;0.394;2023-05-02T11:23:22;1.50;;;1.40;;
17310;SDS011;8773;43.300;0.394;2023-05-02T11:25:50;1.67;;;1.58;;
17310;SDS011;8773;43.300;0.394;2023-05-02T11:31:06;4.53;;;2.05;;
17310;SDS011;8773;43.300;0.394;2023-05-02T11:33:34;3.97;;;1.60;;
17310;SDS011;8773;43.300;0.394;2023-05-02T11:36:02;2.08;;;1.60;;
17310;SDS011;8773;43.300;0.394;2023-05-02T11:38:35;2.55;;;1.33;;
17310;SDS011;8773;43.300;0.394;2023-05-02T11:41:03;1.40;;;1.30;;
17310;SDS011;8773;43.300;0.394;2023-05-02T11:43:34;1.58;;;1.48;;
17310;SDS011;8773;43.300;0.394;2023-05-02T11:46:01;2.45;;;1.30;;
17310;SDS011;8773;43.300;0.394;2023-05-02T11:48:29;1.50;;;1.40;;
17310;SDS011;8773;43.300;0.394;2023-05-02T11:50:57;1.50;;;1.40;;
17310;SDS011;8773;43.300;0.394;2023-05-02T11:53:26;2.05;;;1.50;;
17310;SDS011;8773;43.300;0.394;2023-05-02T11:55:56;2.17;;;1.38;;
17310;SDS011;8773;43.300;0.394;2023-05-02T11:58:25;1.50;;;1.40;;
17310;SDS011;8773;43.300;0.394;2023-05-02T12:00:53;1.67;;;1.58;;
17310;SDS011;8773;43.300;0.394;2023-05-02T12:03:25;1.80;;;1.70;;
17310;SDS011;8773;43.300;0.394;2023-05-02T12:05:55;1.48;;;1.48;;
17310;SDS011;8773;43.300;0.394;2023-05-02T12:08:23;2.60;;;1.60;;
17310;SDS011;8773;43.300;0.394;2023-05-02T12:10:52;1.75;;;1.60;;
17310;SDS011;8773;43.300;0.394;2023-05-02T12:13:22;2.90;;;1.63;;
17310;SDS011;8773;43.300;0.394;2023-05-02T12:15:51;1.52;;;1.48;;
17310;SDS011;8773;43.300;0.394;2023-05-02T12:18:21;1.50;;;1.50;;
17310;SDS011;8773;43.300;0.394;2023-05-02T12:20:50;2.45;;;1.40;;
17310;SDS011;8773;43.300;0.394;2023-05-02T12:23:18;1.90;;;1.63;;
17310;SDS011;8773;43.300;0.394;2023-05-02T12:25:46;1.65;;;1.50;;
17310;SDS011;8773;43.300;0.394;2023-05-02T12:28:15;2.22;;;1.77;;
17310;SDS011;8773;43.300;0.394;2023-05-02T12:30:45;2.10;;;1.60;;
17310;SDS011;8773;43.300;0.394;2023-05-02T12:33:13;1.75;;;1.50;;
17310;SDS011;8773;43.300;0.394;2023-05-02T12:35:41;2.65;;;1.60;;
17310;SDS011;8773;43.300;0.394;2023-05-02T12:38:10;1.50;;;1.40;;
17310;SDS011;8773;43.300;0.394;2023-05-02T12:40:44;1.95;;;1.38;;
17310;SDS011;8773;43.300;0.394;2023-05-02T12:43:13;2.10;;;1.48;;
17310;SDS011;8773;43.300;0.394;2023-05-02T12:45:40;1.73;;;1.50;;
17310;SDS011;8773;43.300;0.394;2023-05-02T12:48:19;1.40;;;1.30;;
17310;SDS011;8773;43.300;0.394;2023-05-02T12:50:48;2.20;;;1.63;;
17310;SDS011;8773;43.300;0.394;2023-05-02T12:53:16;1.65;;;1.55;;
17310;SDS011;8773;43.300;0.394;2023-05-02T12:55:43;1.48;;;1.38;;
17310;SDS011;8773;43.300;0.394;2023-05-02T12:58:10;1.23;;;1.13;;
17310;SDS011;8773;43.300;0.394;2023-05-02T13:00:38;1.50;;;1.40;;
17310;SDS011;8773;43.300;0.394;2023-05-02T13:03:07;1.77;;;1.45;;
17310;SDS011;8773;43.300;0.394;2023-05-02T13:05:37;1.70;;;1.40;;
17310;SDS011;8773;43.300;0.394;2023-05-02T13:08:04;1.70;;;1.42;;
17310;SDS011;8773;43.300;0.394;2023-05-02T13:10:31;1.10;;;1.10;;
17310;SDS011;8773;43.300;0.394;2023-05-02T13:12:59;1.50;;;1.40;;
17310;SDS011;8773;43.300;0.394;2023-05-02T13:15:26;1.83;;;1.48;;
17310;SDS011;8773;43.300;0.394;2023-05-02T13:17:54;1.10;;;1.10;;
17310;SDS011;8773;43.300;0.394;2023-05-02T13:20:21;1.60;;;1.38;;
17310;SDS011;8773;43.300;0.394;2023-05-02T13:22:50;1.13;;;1.13;;
17310;SDS011;8773;43.300;0.394;2023-05-02T13:25:17;1.20;;;1.20;;
17310;SDS011;8773;43.300;0.394;2023-05-02T13:27:45;1.60;;;1.50;;
17310;SDS011;8773;43.300;0.394;2023-05-02T13:30:12;1.95;;;1.20;;
17310;SDS011;8773;43.300;0.394;2023-05-02T13:32:40;1.20;;;1.10;;
17310;SDS011;8773;43.300;0.394;2023-05-02T13:35:07;2.20;;;1.40;;
17310;SDS011;8773;43.300;0.394;2023-05-02T13:37:35;1.38;;;1.27;;
17310;SDS011;8773;43.300;0.394;2023-05-02T13:40:05;1.50;;;1.40;;
17310;SDS011;8773;43.300;0.394;2023-05-02T13:42:33;1.55;;;1.45;;
17310;SDS011;8773;43.300;0.394;2023-05-02T13:45:01;1.55;;;1.45;;
17310;SDS011;8773;43.300;0.394;2023-05-02T13:47:28;1.70;;;1.60;;
17310;SDS011;8773;43.300;0.394;2023-05-02T13:49:55;1.70;;;1.10;;
17310;SDS011;8773;43.300;0.394;2023-05-02T13:52:23;1.40;;;1.30;;
17310;SDS011;8773;43.300;0.394;2023-05-02T13:54:50;2.47;;;1.40;;
17310;SDS011;8773;43.300;0.394;2023-05-02T13:57:19;2.55;;;1.30;;
17310;SDS011;8773;43.300;0.394;2023-05-02T13:59:46;1.35;;;1.10;;
17310;SDS011;8773;43.300;0.394;2023-05-02T14:02:13;1.30;;;1.20;;
17310;SDS011;8773;43.300;0.394;2023-05-02T14:04:41;1.10;;;1.10;;
17310;SDS011;8773;43.300;0.394;2023-05-02T14:07:08;1.40;;;1.30;;
17310;SDS011;8773;43.300;0.394;2023-05-02T14:09:35;1.77;;;1.17;;
17310;SDS011;8773;43.300;0.394;2023-05-02T14:12:03;2.20;;;1.25;;
17310;SDS011;8773;43.300;0.394;2023-05-02T14:14:32;2.00;;;1.35;;
17310;SDS011;8773;43.300;0.394;2023-05-02T14:16:59;1.48;;;1.30;;
17310;SDS011;8773;43.300;0.394;2023-05-02T14:19:26;1.65;;;1.55;;
17310;SDS011;8773;43.300;0.394;2023-05-02T14:21:54;1.58;;;1.50;;
17310;SDS011;8773;43.300;0.394;2023-05-02T14:24:21;3.50;;;1.50;;
17310;SDS011;8773;43.300;0.394;2023-05-02T14:26:49;1.52;;;0.98;;
17310;SDS011;8773;43.300;0.394;2023-05-02T14:29:16;1.10;;;1.10;;
17310;SDS011;8773;43.300;0.394;2023-05-02T14:31:45;1.27;;;1.27;;
17310;SDS011;8773;43.300;0.394;2023-05-02T14:34:12;1.60;;;1.50;;
17310;SDS011;8773;43.300;0.394;2023-05-02T14:36:39;1.20;;;1.20;;
17310;SDS011;8773;43.300;0.394;2023-05-02T14:39:07;1.20;;;1.10;;
17310;SDS011;8773;43.300;0.394;2023-05-02T14:41:34;1.30;;;1.20;;
17310;SDS011;8773;43.300;0.394;2023-05-02T14:44:01;1.15;;;1.05;;
17310;SDS011;8773;43.300;0.394;2023-05-02T14:46:29;1.23;;;1.20;;
17310;SDS011;8773;43.300;0.394;2023-05-02T14:48:58;1.30;;;1.20;;
17310;SDS011;8773;43.300;0.394;2023-05-02T14:51:25;1.10;;;1.10;;
17310;SDS011;8773;43.300;0.394;2023-05-02T14:53:52;1.33;;;1.10;;
17310;SDS011;8773;43.300;0.394;2023-05-02T14:56:20;1.63;;;1.30;;
17310;SDS011;8773;43.300;0.394;2023-05-02T14:58:47;1.27;;;1.17;;
17310;SDS011;8773;43.300;0.394;2023-05-02T15:01:15;1.40;;;1.00;;
17310;SDS011;8773;43.300;0.394;2023-05-02T15:03:42;1.30;;;1.30;;
17310;SDS011;8773;43.300;0.394;2023-05-02T15:06:31;1.30;;;1.20;;
17310;SDS011;8773;43.300;0.394;2023-05-02T15:08:59;2.40;;;1.10;;
17310;SDS011;8773;43.300;0.394;2023-05-02T15:11:26;0.93;;;0.93;;
17310;SDS011;8773;43.300;0.394;2023-05-02T15:13:53;1.13;;;1.13;;
17310;SDS011;8773;43.300;0.394;2023-05-02T15:16:24;2.33;;;1.05;;
17310;SDS011;8773;43.300;0.394;2023-05-02T15:18:51;1.55;;;1.23;;
17310;SDS011;8773;43.300;0.394;2023-05-02T15:21:18;1.60;;;1.50;;
17310;SDS011;8773;43.300;0.394;2023-05-02T15:23:47;1.00;;;1.00;;
17310;SDS011;8773;43.300;0.394;2023-05-02T15:26:15;1.38;;;1.27;;
17310;SDS011;8773;43.300;0.394;2023-05-02T15:28:42;1.85;;;1.20;;